Pagrindinis puslapis
METAR-TAF:

METAR-TAF

Oro uostai :

Balikesyras, Turkija

platuma: 39-37N, ilguma: 027-55E, Aukštis: 101 m

Dabartinis oras

Ataskaita buvo paskelbta 25 minutes, ne 05:50 UTC
Ramus vėjas
Temperatūra 7°C
Drėgmė 87%
Slėgis 1018 hPa
Matomumas: 7000 m

METAR: LTBF 100550Z 00000KT 7000 NSC 07/05 Q1018 NOSIG

Laikas: 09:15 (06:15 UTC)

Prognozė

Ataskaita buvo paskelbta 1 valandą ir 35 minutes, ne 04:40 UTC
Prognozė galioja nuo 10 metu 06 UTC su 10 metu 15 UTC
Vėjas 8 kt iš Šiaurės
Matomumas 10 km arba daugiau
nėra debesų žemiau 1500 m ir nėra kamuolinių lietaus debesų

TAF: LTBF 100440Z 1006/1015 35008KT CAVOK

Orai ataskaitas ir orų prognozės (METAR, TAF).

turimą stotys yra geltonos ir raudonos taškus žemėlapyje.

Perkelti pele per norėdami pamatyti stoties vardą.

Tada spustelėkite, norėdami matyti oro stebėjimo ir prognozės.

Norėdami pakeisti žemėlapį: spustelėkite ant žalios mygtukų su juodo kryžiaus žemyn,; žalią mygtuką su brūkšneliu, jei norite nutolinti; arba žalių rodyklių gretimoms žemėlapius.


METAR-TAF: